Time;durP1;ratioP1;P1;durP2;ratioP2;P2;SDS_P1;SDS_P2;PMS_P1;PMS_P2;Temp;Humidity;BMP_temperature;BMP_pressure;BME280_temperature;BME280_humidity;BME280_pressure;Samples;Min_cycle;Max_cycle;Signal;HPM_P1;HPM_P2
2022/03/07 00:00:00;;;;;;;7.20;5.78;;;;;;;;;;5051310;28;20194;-80
2022/03/07 00:02:26;;;;;;;8.40;5.57;;;;;;;;;;4917511;28;20690;-77
2022/03/07 00:07:26;;;;;;;8.63;5.60;;;;;;;;;;5174685;27;20336;-78
2022/03/07 00:09:52;;;;;;;10.50;6.17;;;;;;;;;;5156973;27;20190;-78
2022/03/07 00:12:18;;;;;;;9.10;6.03;;;;;;;;;;5157233;27;20441;-79
2022/03/07 00:14:44;;;;;;;8.18;4.68;;;;;;;;;;5191695;27;20509;-77
2022/03/07 00:17:10;;;;;;;9.65;5.40;;;;;;;;;;5120293;28;20218;-80
2022/03/07 00:19:36;;;;;;;8.00;5.32;;;;;;;;;;5126920;28;20195;-78
2022/03/07 00:22:02;;;;;;;7.15;4.70;;;;;;;;;;5101962;28;20656;-77
2022/03/07 00:24:28;;;;;;;6.05;4.68;;;;;;;;;;5093791;28;20624;-78
2022/03/07 00:26:54;;;;;;;5.68;4.65;;;;;;;;;;5063137;28;20301;-78
2022/03/07 00:31:57;;;;;;;6.00;4.95;;;;;;;;;;5192769;27;20501;-78
2022/03/07 00:34:23;;;;;;;5.65;4.93;;;;;;;;;;5188152;27;20654;-77
2022/03/07 00:36:49;;;;;;;6.57;4.65;;;;;;;;;;5178957;27;20293;-77
2022/03/07 00:39:15;;;;;;;5.90;4.43;;;;;;;;;;5151778;27;20530;-77
2022/03/07 00:41:41;;;;;;;5.50;4.20;;;;;;;;;;5117487;28;20427;-78
2022/03/07 00:44:07;;;;;;;7.68;4.88;;;;;;;;;;5050150;28;20205;-79
2022/03/07 00:46:33;;;;;;;7.93;4.33;;;;;;;;;;5052124;28;20551;-77
2022/03/07 00:48:59;;;;;;;7.57;5.40;;;;;;;;;;5029322;28;20479;-78
2022/03/07 00:51:25;;;;;;;6.72;5.07;;;;;;;;;;4959414;28;20703;-76
2022/03/07 00:56:31;;;;;;;7.03;4.68;;;;;;;;;;5182452;27;20494;-77
2022/03/07 00:58:57;;;;;;;6.15;4.43;;;;;;;;;;5170627;27;20196;-80
2022/03/07 01:01:23;;;;;;;5.88;5.20;;;;;;;;;;5192361;27;20181;-79
2022/03/07 01:03:50;;;;;;;8.40;4.57;;;;;;;;;;5183201;27;20653;-78
2022/03/07 01:06:16;;;;;;;6.05;4.40;;;;;;;;;;5131076;27;20564;-77
2022/03/07 01:08:42;;;;;;;6.57;4.80;;;;;;;;;;5071267;28;20196;-77
2022/03/07 01:11:09;;;;;;;9.63;4.50;;;;;;;;;;4984489;28;20235;-80
2022/03/07 01:13:35;;;;;;;6.90;4.20;;;;;;;;;;4856135;29;20193;-78
2022/03/07 01:16:01;;;;;;;5.55;3.88;;;;;;;;;;4778895;29;20246;-76
2022/03/07 01:20:00;;;;;;;7.00;4.10;;;;;;;;;;5192910;27;20477;-78
2022/03/07 01:22:26;;;;;;;4.65;4.15;;;;;;;;;;5187621;27;20192;-78
2022/03/07 01:24:52;;;;;;;5.43;4.22;;;;;;;;;;5192282;27;20197;-79
2022/03/07 01:27:18;;;;;;;6.93;4.72;;;;;;;;;;5168064;27;20372;-78
2022/03/07 01:29:44;;;;;;;6.00;5.10;;;;;;;;;;5088281;28;20276;-76
2022/03/07 01:32:10;;;;;;;6.05;4.80;;;;;;;;;;5065879;28;20196;-78
2022/03/07 01:34:36;;;;;;;10.65;4.53;;;;;;;;;;5027602;28;20202;-77
2022/03/07 01:37:02;;;;;;;5.65;5.13;;;;;;;;;;4965577;28;20213;-78
2022/03/07 01:39:28;;;;;;;4.93;4.43;;;;;;;;;;4969117;28;20267;-78
2022/03/07 01:44:21;;;;;;;6.43;5.70;;;;;;;;;;5151154;27;20484;-78
2022/03/07 01:46:47;;;;;;;8.65;5.05;;;;;;;;;;5099115;28;20902;-78
2022/03/07 01:49:13;;;;;;;5.75;4.90;;;;;;;;;;5109658;28;20509;-77
2022/03/07 01:51:42;;;;;;;4.85;4.35;;;;;;;;;;5129083;28;20244;-76
2022/03/07 01:54:10;;;;;;;7.32;4.65;;;;;;;;;;5094390;28;20265;-77
2022/03/07 01:56:36;;;;;;;5.97;4.85;;;;;;;;;;5058340;28;20278;-77
2022/03/07 01:59:03;;;;;;;5.30;4.55;;;;;;;;;;4953899;28;20206;-78
2022/03/07 02:01:29;;;;;;;6.72;4.50;;;;;;;;;;4869621;29;20205;-78
2022/03/07 02:03:55;;;;;;;7.90;4.55;;;;;;;;;;4765516;29;20227;-76
2022/03/07 02:08:52;;;;;;;5.55;5.03;;;;;;;;;;5193052;27;20485;-80
2022/03/07 02:11:18;;;;;;;6.47;5.80;;;;;;;;;;5170830;27;20201;-79
2022/03/07 02:13:44;;;;;;;7.25;5.22;;;;;;;;;;5189506;27;20193;-79
2022/03/07 02:16:12;;;;;;;7.43;5.88;;;;;;;;;;5163005;27;20217;-78
2022/03/07 02:18:38;;;;;;;8.43;5.43;;;;;;;;;;5123214;27;20245;-79
2022/03/07 02:21:09;;;;;;;10.80;6.78;;;;;;;;;;5125215;28;20538;-76
2022/03/07 02:23:35;;;;;;;7.95;5.60;;;;;;;;;;5075238;28;20221;-80
2022/03/07 02:26:07;;;;;;;9.32;5.60;;;;;;;;;;5060428;28;20249;-78
2022/03/07 02:31:20;;;;;;;7.25;5.78;;;;;;;;;;5192880;27;20486;-77
2022/03/07 02:33:47;;;;;;;6.70;5.50;;;;;;;;;;5187882;27;20185;-78
2022/03/07 02:36:13;;;;;;;9.70;5.07;;;;;;;;;;5164658;27;20665;-76
2022/03/07 02:38:39;;;;;;;6.95;5.38;;;;;;;;;;5170506;27;20269;-80
2022/03/07 02:41:05;;;;;;;6.50;5.15;;;;;;;;;;5153468;27;20199;-80
2022/03/07 02:43:31;;;;;;;10.00;6.40;;;;;;;;;;5112161;28;20316;-77
2022/03/07 02:45:58;;;;;;;6.80;5.25;;;;;;;;;;5123876;28;20207;-77
2022/03/07 02:48:24;;;;;;;5.72;5.13;;;;;;;;;;5078208;28;20196;-79
2022/03/07 02:50:50;;;;;;;6.50;4.80;;;;;;;;;;5050212;28;20301;-77
2022/03/07 02:56:03;;;;;;;6.65;5.55;;;;;;;;;;5186624;27;20825;-78
2022/03/07 02:58:30;;;;;;;7.47;5.38;;;;;;;;;;5187921;27;20233;-79
2022/03/07 03:00:55;;;;;;;8.80;5.90;;;;;;;;;;5192072;27;20192;-77
2022/03/07 03:03:21;;;;;;;6.80;5.78;;;;;;;;;;5191812;27;20200;-80
2022/03/07 03:05:47;;;;;;;6.97;5.65;;;;;;;;;;5161597;27;20301;-78
2022/03/07 03:08:13;;;;;;;7.20;5.72;;;;;;;;;;5123108;28;20237;-77
2022/03/07 03:10:39;;;;;;;6.25;5.03;;;;;;;;;;5163614;27;20508;-77
2022/03/07 03:13:05;;;;;;;8.07;4.88;;;;;;;;;;5163438;27;20630;-79
2022/03/07 03:15:31;;;;;;;8.15;5.30;;;;;;;;;;5108341;27;20554;-76
2022/03/07 03:20:35;;;;;;;6.40;5.20;;;;;;;;;;5193053;27;20501;-79
2022/03/07 03:23:01;;;;;;;7.80;5.43;;;;;;;;;;5187753;27;20633;-77
2022/03/07 03:25:27;;;;;;;6.55;5.15;;;;;;;;;;5190319;27;20193;-78
2022/03/07 03:27:53;;;;;;;6.85;4.65;;;;;;;;;;5151900;27;20642;-76
2022/03/07 03:30:19;;;;;;;6.25;4.82;;;;;;;;;;5118260;28;20180;-78
2022/03/07 03:32:45;;;;;;;6.85;4.68;;;;;;;;;;5106064;28;20537;-75
2022/03/07 03:35:12;;;;;;;14.15;4.35;;;;;;;;;;5020001;28;20185;-79
2022/03/07 03:37:38;;;;;;;5.15;4.03;;;;;;;;;;4931040;28;20218;-79
2022/03/07 03:40:05;;;;;;;5.15;4.18;;;;;;;;;;4901689;29;20229;-77
2022/03/07 03:44:50;;;;;;;5.43;4.88;;;;;;;;;;5192904;27;20474;-77
2022/03/07 03:47:16;;;;;;;6.85;4.13;;;;;;;;;;5170936;27;20240;-77
2022/03/07 03:49:42;;;;;;;5.95;4.25;;;;;;;;;;5151622;27;20536;-77
2022/03/07 03:52:08;;;;;;;4.05;3.65;;;;;;;;;;5157632;27;20273;-79
2022/03/07 03:54:35;;;;;;;4.13;3.70;;;;;;;;;;5141029;27;20195;-79
2022/03/07 03:57:01;;;;;;;5.82;4.13;;;;;;;;;;5115939;27;20207;-79
2022/03/07 03:59:27;;;;;;;4.90;4.00;;;;;;;;;;5017130;28;20203;-78
2022/03/07 04:01:53;;;;;;;4.82;3.80;;;;;;;;;;4955685;28;20208;-79
2022/03/07 04:04:19;;;;;;;4.47;3.63;;;;;;;;;;4839029;29;20235;-77
2022/03/07 04:09:23;;;;;;;4.32;3.03;;;;;;;;;;5193012;27;20496;-78
2022/03/07 04:11:49;;;;;;;5.18;4.32;;;;;;;;;;5187684;27;20188;-78
2022/03/07 04:14:15;;;;;;;6.80;4.28;;;;;;;;;;5192291;27;20271;-79
2022/03/07 04:16:41;;;;;;;4.85;3.40;;;;;;;;;;5179513;27;20205;-78
2022/03/07 04:19:08;;;;;;;4.57;3.20;;;;;;;;;;5090009;28;20212;-77
2022/03/07 04:21:35;;;;;;;4.30;3.13;;;;;;;;;;5002530;28;20190;-75
2022/03/07 04:24:01;;;;;;;8.85;3.72;;;;;;;;;;5026568;28;20612;-79
2022/03/07 04:26:27;;;;;;;6.13;3.50;;;;;;;;;;5028634;28;20208;-78
2022/03/07 04:28:54;;;;;;;4.90;3.85;;;;;;;;;;4951202;28;20258;-77
2022/03/07 04:34:06;;;;;;;5.90;3.97;;;;;;;;;;5192904;27;20996;-79
2022/03/07 04:36:33;;;;;;;8.13;3.67;;;;;;;;;;5160046;27;20208;-79
2022/03/07 04:38:59;;;;;;;3.60;3.20;;;;;;;;;;5170911;27;20183;-79
2022/03/07 04:41:26;;;;;;;5.45;3.97;;;;;;;;;;5145731;27;20294;-77
2022/03/07 04:43:52;;;;;;;6.15;3.53;;;;;;;;;;5146167;27;20186;-80
2022/03/07 04:46:18;;;;;;;4.22;3.67;;;;;;;;;;5142426;27;20650;-77
2022/03/07 04:48:44;;;;;;;4.38;3.63;;;;;;;;;;5119574;28;20651;-79
2022/03/07 04:51:10;;;;;;;5.55;4.40;;;;;;;;;;5066604;28;20271;-80
2022/03/07 04:53:36;;;;;;;4.75;3.80;;;;;;;;;;5001826;28;20223;-77
2022/03/07 04:58:47;;;;;;;6.50;3.53;;;;;;;;;;5193044;27;20490;-79
2022/03/07 05:01:14;;;;;;;3.95;3.53;;;;;;;;;;5170875;27;20199;-78
2022/03/07 05:03:40;;;;;;;5.18;4.13;;;;;;;;;;5192153;27;20180;-78
2022/03/07 05:06:08;;;;;;;3.60;3.30;;;;;;;;;;5158037;27;20213;-79
2022/03/07 05:08:34;;;;;;;5.25;3.60;;;;;;;;;;5102803;28;20238;-77
2022/03/07 05:11:01;;;;;;;6.80;4.20;;;;;;;;;;5081889;28;20193;-76
2022/03/07 05:13:27;;;;;;;4.45;4.05;;;;;;;;;;5006302;28;20186;-79
2022/03/07 05:15:53;;;;;;;4.07;3.63;;;;;;;;;;4930716;28;20317;-78
2022/03/07 05:20:51;;;;;;;6.95;4.35;;;;;;;;;;5193081;27;20291;-80
2022/03/07 05:23:17;;;;;;;7.30;4.43;;;;;;;;;;5187895;27;20188;-75
2022/03/07 05:25:43;;;;;;;6.33;3.40;;;;;;;;;;5187915;27;20649;-79
2022/03/07 05:28:09;;;;;;;5.43;4.38;;;;;;;;;;5170459;27;20431;-79
2022/03/07 05:30:35;;;;;;;7.15;4.28;;;;;;;;;;5114910;27;20196;-76
2022/03/07 05:33:01;;;;;;;5.47;4.15;;;;;;;;;;5076970;28;20215;-77
2022/03/07 05:35:29;;;;;;;3.80;3.50;;;;;;;;;;5074054;28;20256;-78
2022/03/07 05:37:55;;;;;;;6.10;3.70;;;;;;;;;;5042932;28;20185;-78
2022/03/07 05:40:21;;;;;;;5.78;4.40;;;;;;;;;;4992516;28;20579;-78
2022/03/07 05:46:06;;;;;;;5.50;4.25;;;;;;;;;;5186332;27;20499;-78
2022/03/07 05:48:32;;;;;;;4.45;3.85;;;;;;;;;;5171082;27;20193;-77
2022/03/07 05:50:58;;;;;;;5.70;4.03;;;;;;;;;;5192417;27;20188;-77
2022/03/07 05:53:24;;;;;;;4.43;4.03;;;;;;;;;;5191427;27;20227;-78
2022/03/07 05:55:51;;;;;;;5.78;4.55;;;;;;;;;;5169708;27;20213;-76
2022/03/07 05:58:17;;;;;;;3.85;3.45;;;;;;;;;;5163331;27;20576;-75
2022/03/07 06:00:43;;;;;;;4.82;4.38;;;;;;;;;;5129622;27;20200;-78
2022/03/07 06:03:09;;;;;;;5.05;4.38;;;;;;;;;;5079304;28;20188;-77
2022/03/07 06:05:36;;;;;;;7.55;3.67;;;;;;;;;;4960702;28;20631;-79
2022/03/07 06:10:17;;;;;;;6.65;3.70;;;;;;;;;;5193241;27;20835;-78
2022/03/07 06:12:43;;;;;;;5.80;3.85;;;;;;;;;;5188151;27;20193;-75
2022/03/07 06:15:09;;;;;;;5.25;4.50;;;;;;;;;;5172132;27;20253;-79
2022/03/07 06:17:36;;;;;;;6.45;4.13;;;;;;;;;;5172105;27;20244;-78
2022/03/07 06:20:02;;;;;;;4.70;4.05;;;;;;;;;;5128852;27;20669;-77
2022/03/07 06:22:28;;;;;;;9.15;4.68;;;;;;;;;;5098972;28;20188;-79
2022/03/07 06:24:54;;;;;;;6.72;5.40;;;;;;;;;;5010245;28;20547;-78
2022/03/07 06:27:20;;;;;;;5.97;5.00;;;;;;;;;;4936766;28;20226;-78
2022/03/07 06:29:46;;;;;;;6.82;5.22;;;;;;;;;;4981705;28;20226;-79
2022/03/07 06:34:43;;;;;;;4.72;3.80;;;;;;;;;;5192911;27;20354;-78
2022/03/07 06:37:09;;;;;;;6.75;5.32;;;;;;;;;;5137563;27;20224;-77
2022/03/07 06:39:35;;;;;;;7.78;5.40;;;;;;;;;;5171230;27;20269;-77
2022/03/07 06:42:01;;;;;;;4.60;4.20;;;;;;;;;;5169739;27;20197;-78
2022/03/07 06:44:27;;;;;;;4.68;4.22;;;;;;;;;;5087864;28;20430;-76
2022/03/07 06:46:54;;;;;;;7.07;4.73;;;;;;;;;;5084819;28;20667;-78
2022/03/07 06:49:20;;;;;;;12.68;5.00;;;;;;;;;;5096092;28;20432;-79
2022/03/07 06:51:46;;;;;;;4.53;4.05;;;;;;;;;;5099576;28;20212;-76
2022/03/07 06:54:12;;;;;;;7.90;5.18;;;;;;;;;;5073003;28;20220;-79
2022/03/07 06:59:10;;;;;;;6.38;4.47;;;;;;;;;;5193111;27;20632;-78
2022/03/07 07:01:36;;;;;;;5.88;4.25;;;;;;;;;;5170578;27;20196;-78
2022/03/07 07:04:02;;;;;;;7.75;5.38;;;;;;;;;;5192334;27;20189;-79
2022/03/07 07:06:28;;;;;;;6.00;5.40;;;;;;;;;;5161053;27;20245;-76
2022/03/07 07:08:54;;;;;;;5.30;4.80;;;;;;;;;;5131991;27;20680;-78
2022/03/07 07:11:20;;;;;;;10.80;4.90;;;;;;;;;;5078192;28;20450;-76
2022/03/07 07:13:46;;;;;;;11.52;5.35;;;;;;;;;;5037638;28;20516;-77
2022/03/07 07:16:12;;;;;;;5.85;5.22;;;;;;;;;;4883226;28;20225;-77
2022/03/07 07:18:38;;;;;;;5.97;5.10;;;;;;;;;;4726642;30;20303;-77
2022/03/07 07:23:22;;;;;;;6.18;4.75;;;;;;;;;;5192839;27;20500;-78
2022/03/07 07:25:49;;;;;;;7.28;4.55;;;;;;;;;;5183772;27;20520;-78
2022/03/07 07:28:15;;;;;;;5.50;4.97;;;;;;;;;;5151759;27;20190;-77
2022/03/07 07:30:41;;;;;;;6.00;5.38;;;;;;;;;;5138954;27;20206;-78
2022/03/07 07:33:07;;;;;;;6.20;4.82;;;;;;;;;;5119724;27;20255;-78
2022/03/07 07:35:36;;;;;;;9.30;4.75;;;;;;;;;;5089905;28;20542;-79
2022/03/07 07:38:02;;;;;;;5.20;4.70;;;;;;;;;;5039235;28;20201;-79
2022/03/07 07:40:28;;;;;;;6.88;5.07;;;;;;;;;;5038331;28;20196;-79
2022/03/07 07:42:54;;;;;;;9.63;5.40;;;;;;;;;;4993897;28;20246;-77
2022/03/07 07:48:00;;;;;;;9.80;4.95;;;;;;;;;;5192654;27;21004;-78
2022/03/07 07:50:26;;;;;;;6.35;4.05;;;;;;;;;;5187524;27;20654;-79
2022/03/07 07:52:53;;;;;;;8.35;5.50;;;;;;;;;;5182090;27;20591;-77
2022/03/07 07:55:19;;;;;;;6.88;5.00;;;;;;;;;;5120386;28;20621;-77
2022/03/07 07:57:45;;;;;;;6.07;4.70;;;;;;;;;;5040010;28;20212;-76
2022/03/07 08:00:15;;;;;;;6.30;5.10;;;;;;;;;;4987197;28;20194;-76
2022/03/07 08:02:41;;;;;;;7.50;4.45;;;;;;;;;;4983844;28;20203;-78
2022/03/07 08:05:07;;;;;;;8.18;4.55;;;;;;;;;;4871444;29;20286;-79
2022/03/07 08:07:34;;;;;;;5.22;4.60;;;;;;;;;;4781478;29;20644;-78
2022/03/07 08:11:43;;;;;;;6.90;4.63;;;;;;;;;;5192452;27;20473;-79
2022/03/07 08:14:09;;;;;;;4.35;3.78;;;;;;;;;;5187704;27;20180;-79
2022/03/07 08:16:35;;;;;;;6.25;4.90;;;;;;;;;;5138646;27;20586;-76
2022/03/07 08:19:01;;;;;;;5.87;4.40;;;;;;;;;;5103797;28;20290;-79
2022/03/07 08:21:27;;;;;;;8.95;5.07;;;;;;;;;;5049509;28;20467;-76
2022/03/07 08:23:56;;;;;;;6.90;4.60;;;;;;;;;;5004207;28;20201;-76
2022/03/07 08:26:23;;;;;;;6.65;3.75;;;;;;;;;;4988041;28;20236;-76
2022/03/07 08:28:49;;;;;;;7.25;4.38;;;;;;;;;;4965501;28;20196;-76
2022/03/07 08:31:15;;;;;;;6.17;3.93;;;;;;;;;;4866979;29;20237;-78
2022/03/07 08:35:24;;;;;;;5.30;4.35;;;;;;;;;;5191949;27;20482;-78
2022/03/07 08:37:51;;;;;;;5.50;4.70;;;;;;;;;;5187854;27;20188;-77
2022/03/07 08:40:18;;;;;;;4.28;3.80;;;;;;;;;;5192085;27;20181;-79
2022/03/07 08:42:45;;;;;;;5.75;4.30;;;;;;;;;;5188747;27;20210;-77
2022/03/07 08:45:11;;;;;;;4.13;3.67;;;;;;;;;;5161220;27;20205;-78
2022/03/07 08:47:38;;;;;;;4.57;4.15;;;;;;;;;;5098094;27;20239;-77
2022/03/07 08:50:05;;;;;;;5.72;4.03;;;;;;;;;;5078234;28;20601;-79
2022/03/07 08:52:31;;;;;;;4.65;3.40;;;;;;;;;;5028848;28;20194;-76
2022/03/07 08:54:57;;;;;;;4.13;3.63;;;;;;;;;;4986578;28;20583;-76
2022/03/07 08:59:19;;;;;;;4.45;3.20;;;;;;;;;;5193029;27;20483;-78
2022/03/07 09:01:45;;;;;;;3.80;3.50;;;;;;;;;;5153046;27;20575;-80
2022/03/07 09:04:11;;;;;;;4.07;3.53;;;;;;;;;;5192023;27;20430;-78
2022/03/07 09:06:37;;;;;;;4.47;3.45;;;;;;;;;;5151589;27;20475;-77
2022/03/07 09:09:03;;;;;;;4.03;3.72;;;;;;;;;;5048486;28;20280;-79
2022/03/07 09:11:29;;;;;;;4.40;3.77;;;;;;;;;;5001734;28;20578;-77
2022/03/07 09:13:55;;;;;;;4.63;3.80;;;;;;;;;;4959089;28;20447;-77
2022/03/07 09:16:21;;;;;;;4.95;3.63;;;;;;;;;;4916369;29;20548;-77
2022/03/07 09:18:47;;;;;;;4.28;3.50;;;;;;;;;;4820403;29;20225;-78
2022/03/07 09:23:46;;;;;;;3.55;3.25;;;;;;;;;;5192464;27;20408;-78
2022/03/07 09:26:13;;;;;;;7.38;4.13;;;;;;;;;;5144475;27;20285;-78
2022/03/07 09:28:39;;;;;;;5.07;3.17;;;;;;;;;;5150602;27;20188;-78
2022/03/07 09:31:08;;;;;;;3.70;3.30;;;;;;;;;;5125924;27;20192;-79
2022/03/07 09:33:34;;;;;;;3.00;2.70;;;;;;;;;;5058189;28;20198;-78
2022/03/07 09:36:00;;;;;;;4.32;3.92;;;;;;;;;;5017548;28;20554;-77
2022/03/07 09:38:28;;;;;;;4.40;3.40;;;;;;;;;;4889416;28;20539;-78
2022/03/07 09:40:54;;;;;;;3.47;2.90;;;;;;;;;;4844679;29;20559;-78
2022/03/07 09:43:21;;;;;;;5.40;3.67;;;;;;;;;;4871524;29;20314;-79
2022/03/07 09:47:57;;;;;;;5.60;3.95;;;;;;;;;;5150617;27;20487;-77
2022/03/07 09:50:23;;;;;;;4.15;3.15;;;;;;;;;;5128784;27;20645;-79
2022/03/07 09:52:50;;;;;;;3.20;2.63;;;;;;;;;;5136488;27;20206;-78
2022/03/07 09:55:17;;;;;;;3.40;3.10;;;;;;;;;;5128122;28;20431;-80
2022/03/07 09:57:43;;;;;;;3.72;3.40;;;;;;;;;;5069805;28;20453;-77
2022/03/07 10:00:10;;;;;;;3.07;2.77;;;;;;;;;;4966397;28;20674;-80
2022/03/07 10:02:36;;;;;;;3.57;3.27;;;;;;;;;;4861574;29;20489;-78
2022/03/07 10:05:03;;;;;;;6.40;3.27;;;;;;;;;;4903574;29;20433;-78
2022/03/07 10:07:29;;;;;;;3.70;3.40;;;;;;;;;;4906620;29;20891;-79
2022/03/07 10:12:28;;;;;;;4.80;3.50;;;;;;;;;;5192838;27;20291;-78
2022/03/07 10:14:54;;;;;;;3.43;3.10;;;;;;;;;;5171153;27;20733;-76
2022/03/07 10:17:21;;;;;;;3.33;3.03;;;;;;;;;;5174555;27;20446;-78
2022/03/07 10:19:47;;;;;;;3.87;3.47;;;;;;;;;;5163714;27;20865;-77
2022/03/07 10:22:14;;;;;;;3.93;2.87;;;;;;;;;;5140477;27;20420;-77
2022/03/07 10:24:40;;;;;;;3.87;3.43;;;;;;;;;;5076935;28;20463;-77
2022/03/07 10:27:06;;;;;;;4.60;3.90;;;;;;;;;;5060970;28;21002;-77
2022/03/07 10:29:32;;;;;;;6.93;3.40;;;;;;;;;;5032396;28;20493;-75
2022/03/07 10:31:59;;;;;;;3.10;2.80;;;;;;;;;;4908454;28;20456;-77
2022/03/07 10:37:05;;;;;;;4.00;3.57;;;;;;;;;;5177596;27;20487;-79
2022/03/07 10:39:31;;;;;;;3.57;3.23;;;;;;;;;;5170928;27;20421;-79
2022/03/07 10:42:00;;;;;;;4.40;3.40;;;;;;;;;;5192161;27;20945;-78
2022/03/07 10:44:30;;;;;;;3.17;2.97;;;;;;;;;;5146155;27;20411;-80
2022/03/07 10:47:07;;;;;;;8.80;3.93;;;;;;;;;;5106878;28;21286;-78
2022/03/07 10:49:33;;;;;;;3.90;3.10;;;;;;;;;;5097990;28;20404;-80
2022/03/07 10:52:01;;;;;;;3.40;3.10;;;;;;;;;;5022420;28;20440;-79
2022/03/07 10:54:27;;;;;;;3.37;2.90;;;;;;;;;;4973051;28;20423;-80
2022/03/07 10:56:54;;;;;;;3.10;2.80;;;;;;;;;;4989605;28;20485;-78
2022/03/07 11:00:48;;;;;;;3.60;3.30;;;;;;;;;;5192812;27;20480;-77
2022/03/07 11:03:18;;;;;;;5.80;3.13;;;;;;;;;;5187923;27;20762;-77
2022/03/07 11:05:44;;;;;;;6.93;3.40;;;;;;;;;;5188350;27;20431;-77
2022/03/07 11:08:10;;;;;;;2.87;2.67;;;;;;;;;;5169940;27;20394;-78
2022/03/07 11:10:37;;;;;;;3.77;3.37;;;;;;;;;;5145017;27;20392;-76
2022/03/07 11:13:03;;;;;;;4.20;3.60;;;;;;;;;;5106231;28;20388;-78
2022/03/07 11:15:29;;;;;;;3.87;3.30;;;;;;;;;;5101297;28;20598;-75
2022/03/07 11:17:55;;;;;;;4.80;3.40;;;;;;;;;;5034936;28;20425;-77
2022/03/07 11:20:22;;;;;;;3.67;3.13;;;;;;;;;;5028183;28;20793;-77
2022/03/07 11:24:15;;;;;;;7.40;3.87;;;;;;;;;;5192929;27;20484;-78
2022/03/07 11:26:42;;;;;;;3.90;3.50;;;;;;;;;;5175494;27;20417;-78
2022/03/07 11:29:08;;;;;;;3.37;3.10;;;;;;;;;;5170705;27;20414;-77
2022/03/07 11:31:35;;;;;;;3.70;2.47;;;;;;;;;;5170024;27;20415;-78
2022/03/07 11:34:06;;;;;;;3.83;3.23;;;;;;;;;;5169109;27;20438;-78
2022/03/07 11:36:32;;;;;;;5.40;3.10;;;;;;;;;;5057661;28;20463;-78
2022/03/07 11:39:01;;;;;;;4.27;3.37;;;;;;;;;;5071527;28;20408;-75
2022/03/07 11:41:29;;;;;;;3.97;3.67;;;;;;;;;;5077016;28;20394;-78
2022/03/07 11:46:29;;;;;;;3.47;3.00;;;;;;;;;;5182998;27;20494;-75
2022/03/07 11:48:56;;;;;;;2.77;2.20;;;;;;;;;;5171096;27;20426;-77
2022/03/07 11:51:23;;;;;;;4.33;3.27;;;;;;;;;;5191846;27;20452;-77
2022/03/07 11:53:49;;;;;;;3.67;2.53;;;;;;;;;;5171287;27;20491;-76
2022/03/07 11:56:19;;;;;;;3.50;2.67;;;;;;;;;;5179505;27;20802;-75
2022/03/07 11:58:49;;;;;;;3.07;2.77;;;;;;;;;;5116364;28;20391;-78
2022/03/07 12:01:15;;;;;;;3.90;2.97;;;;;;;;;;5076046;28;20461;-78
2022/03/07 12:03:41;;;;;;;2.67;2.47;;;;;;;;;;5056538;28;20488;-76
2022/03/07 12:08:57;;;;;;;5.97;4.80;;;;;;;;;;5192945;27;20482;-77
2022/03/07 12:11:25;;;;;;;3.10;2.80;;;;;;;;;;5187798;27;20392;-77
2022/03/07 12:13:52;;;;;;;3.60;2.50;;;;;;;;;;5192235;27;20473;-78
2022/03/07 12:16:28;;;;;;;7.17;3.33;;;;;;;;;;5182831;27;20453;-77
2022/03/07 12:19:05;;;;;;;3.73;3.33;;;;;;;;;;5150577;27;20889;-78
2022/03/07 12:21:31;;;;;;;3.20;2.70;;;;;;;;;;5063180;28;20401;-79
2022/03/07 12:23:58;;;;;;;4.37;2.47;;;;;;;;;;4989919;28;20437;-76
2022/03/07 12:26:24;;;;;;;7.43;2.47;;;;;;;;;;4904389;29;20433;-77
2022/03/07 12:28:50;;;;;;;3.20;3.00;;;;;;;;;;4850849;29;20482;-77
2022/03/07 12:33:22;;;;;;;2.80;2.43;;;;;;;;;;5192770;27;20492;-76
2022/03/07 12:35:48;;;;;;;3.00;2.80;;;;;;;;;;5182248;27;20778;-75
2022/03/07 12:38:14;;;;;;;5.53;3.23;;;;;;;;;;5150771;27;20506;-78
2022/03/07 12:40:40;;;;;;;4.43;2.83;;;;;;;;;;5166297;27;20440;-77
2022/03/07 12:43:08;;;;;;;2.93;2.70;;;;;;;;;;5083128;28;20460;-77
2022/03/07 12:45:43;;;;;;;2.90;2.57;;;;;;;;;;5111384;28;20803;-78
2022/03/07 12:48:09;;;;;;;3.17;2.50;;;;;;;;;;5033151;28;20392;-79
2022/03/07 12:50:36;;;;;;;3.40;3.10;;;;;;;;;;5024790;28;20451;-77
2022/03/07 12:53:02;;;;;;;3.93;2.63;;;;;;;;;;4981970;28;20457;-76
2022/03/07 12:58:05;;;;;;;3.03;2.30;;;;;;;;;;5193033;27;20477;-77
2022/03/07 13:00:32;;;;;;;2.50;2.30;;;;;;;;;;5170853;27;20432;-77
2022/03/07 13:02:58;;;;;;;2.87;2.20;;;;;;;;;;5187184;27;20452;-77
2022/03/07 13:05:26;;;;;;;3.83;2.90;;;;;;;;;;5150407;27;20478;-76
2022/03/07 13:07:59;;;;;;;2.90;2.33;;;;;;;;;;5099994;28;20482;-75
2022/03/07 13:10:26;;;;;;;2.63;2.20;;;;;;;;;;5075095;28;20435;-77
2022/03/07 13:12:56;;;;;;;4.47;2.80;;;;;;;;;;5043071;28;20435;-78
2022/03/07 13:15:22;;;;;;;3.10;2.80;;;;;;;;;;4947984;28;20426;-75
2022/03/07 13:17:59;;;;;;;2.97;2.53;;;;;;;;;;4897046;29;20866;-75
2022/03/07 13:22:46;;;;;;;2.70;2.23;;;;;;;;;;5192921;27;20484;-76
2022/03/07 13:25:12;;;;;;;4.03;3.13;;;;;;;;;;5187548;27;20414;-75
2022/03/07 13:27:44;;;;;;;3.10;2.53;;;;;;;;;;5172056;27;20424;-78
2022/03/07 13:30:11;;;;;;;3.60;2.80;;;;;;;;;;5163832;27;20481;-78
2022/03/07 13:32:39;;;;;;;4.57;2.63;;;;;;;;;;5147158;27;20428;-78
2022/03/07 13:35:06;;;;;;;2.23;2.13;;;;;;;;;;5147508;27;20431;-79
2022/03/07 13:37:45;;;;;;;2.73;2.50;;;;;;;;;;5113013;27;20807;-76
2022/03/07 13:40:11;;;;;;;2.97;2.70;;;;;;;;;;5073385;28;20458;-77
2022/03/07 13:42:47;;;;;;;2.63;2.40;;;;;;;;;;5036785;28;20534;-76
2022/03/07 13:47:30;;;;;;;3.50;2.70;;;;;;;;;;5174887;27;20498;-77
2022/03/07 13:49:57;;;;;;;3.97;2.80;;;;;;;;;;5165732;27;20906;-79
2022/03/07 13:52:23;;;;;;;2.43;2.23;;;;;;;;;;5174306;27;20482;-77
2022/03/07 13:54:50;;;;;;;4.90;2.97;;;;;;;;;;5191269;27;20396;-79
2022/03/07 13:57:18;;;;;;;2.80;2.60;;;;;;;;;;5181230;27;20798;-78
2022/03/07 13:59:54;;;;;;;3.70;2.80;;;;;;;;;;5166438;27;20424;-79
2022/03/07 14:02:20;;;;;;;4.50;2.80;;;;;;;;;;5091600;28;20400;-78
2022/03/07 14:04:53;;;;;;;5.13;2.70;;;;;;;;;;4993698;28;20495;-78
2022/03/07 14:07:23;;;;;;;3.10;2.80;;;;;;;;;;4873139;29;20466;-77
2022/03/07 14:12:30;;;;;;;3.20;2.30;;;;;;;;;;5192803;27;20290;-76
2022/03/07 14:15:00;;;;;;;3.10;2.40;;;;;;;;;;5169972;27;20402;-77
2022/03/07 14:17:26;;;;;;;8.03;2.27;;;;;;;;;;5157467;27;20933;-78
2022/03/07 14:19:52;;;;;;;2.70;2.40;;;;;;;;;;5127362;28;20407;-77
2022/03/07 14:22:19;;;;;;;2.80;2.40;;;;;;;;;;5113308;27;20509;-76
2022/03/07 14:24:46;;;;;;;2.50;2.30;;;;;;;;;;5128708;27;20427;-78
2022/03/07 14:27:12;;;;;;;2.87;2.43;;;;;;;;;;5123893;28;20411;-79
2022/03/07 14:29:38;;;;;;;3.70;3.20;;;;;;;;;;5006009;28;20427;-76
2022/03/07 14:32:05;;;;;;;3.40;3.10;;;;;;;;;;4899361;29;21024;-78
2022/03/07 14:37:04;;;;;;;3.17;2.80;;;;;;;;;;5178031;27;20501;-78
2022/03/07 14:39:31;;;;;;;2.83;2.53;;;;;;;;;;5186632;27;20445;-79
2022/03/07 14:41:57;;;;;;;2.90;2.67;;;;;;;;;;5174097;27;20393;-76
2022/03/07 14:44:23;;;;;;;3.53;2.50;;;;;;;;;;5186566;27;20419;-79
2022/03/07 14:46:49;;;;;;;3.70;2.30;;;;;;;;;;5147066;27;20833;-78
2022/03/07 14:49:15;;;;;;;2.50;2.30;;;;;;;;;;5071355;28;20467;-78
2022/03/07 14:51:41;;;;;;;3.10;1.93;;;;;;;;;;5050203;28;20421;-79
2022/03/07 14:54:07;;;;;;;2.37;2.17;;;;;;;;;;5089612;28;20458;-76
2022/03/07 14:56:33;;;;;;;2.50;2.30;;;;;;;;;;5042077;28;20494;-77
2022/03/07 15:00:59;;;;;;;2.70;2.00;;;;;;;;;;5193029;27;20833;-80
2022/03/07 15:03:25;;;;;;;2.20;2.00;;;;;;;;;;5187735;27;20520;-78
2022/03/07 15:05:51;;;;;;;4.03;2.20;;;;;;;;;;5187422;27;20481;-77
2022/03/07 15:08:17;;;;;;;2.23;2.00;;;;;;;;;;5150339;27;20866;-77
2022/03/07 15:10:43;;;;;;;2.40;1.90;;;;;;;;;;5077945;28;20411;-79
2022/03/07 15:13:09;;;;;;;3.57;2.13;;;;;;;;;;5023935;28;20412;-77
2022/03/07 15:15:38;;;;;;;2.70;2.33;;;;;;;;;;4985925;28;20441;-79
2022/03/07 15:18:04;;;;;;;2.30;2.10;;;;;;;;;;4854440;29;20415;-80
2022/03/07 15:20:30;;;;;;;3.10;2.10;;;;;;;;;;4672114;30;20480;-78
2022/03/07 15:25:25;;;;;;;2.27;2.07;;;;;;;;;;5192288;27;20295;-79
2022/03/07 15:27:53;;;;;;;4.40;2.50;;;;;;;;;;5153568;27;20431;-76
2022/03/07 15:30:19;;;;;;;2.77;2.40;;;;;;;;;;5191095;27;20669;-78
2022/03/07 15:32:45;;;;;;;2.47;2.10;;;;;;;;;;5161051;27;20431;-79
2022/03/07 15:35:11;;;;;;;2.60;2.40;;;;;;;;;;5151407;27;20399;-77
2022/03/07 15:37:37;;;;;;;2.23;2.03;;;;;;;;;;5097802;28;20448;-79
2022/03/07 15:40:03;;;;;;;2.77;2.03;;;;;;;;;;5062771;28;20925;-80
2022/03/07 15:42:29;;;;;;;2.53;2.33;;;;;;;;;;5023505;28;20438;-78
2022/03/07 15:44:57;;;;;;;2.83;2.40;;;;;;;;;;4908557;28;20890;-76
2022/03/07 15:49:25;;;;;;;2.23;2.03;;;;;;;;;;5192841;27;20474;-76
2022/03/07 15:51:51;;;;;;;2.57;2.37;;;;;;;;;;5171126;27;20408;-76
2022/03/07 15:54:19;;;;;;;3.77;2.20;;;;;;;;;;5191821;27;20941;-78
2022/03/07 15:56:46;;;;;;;3.23;2.83;;;;;;;;;;5178440;27;20442;-77
2022/03/07 15:59:17;;;;;;;3.57;2.40;;;;;;;;;;5132357;27;20438;-78
2022/03/07 16:01:44;;;;;;;2.23;2.03;;;;;;;;;;5061259;28;20835;-79
2022/03/07 16:04:12;;;;;;;2.53;2.30;;;;;;;;;;5021136;28;20484;-77
2022/03/07 16:06:38;;;;;;;2.77;2.50;;;;;;;;;;4868051;29;20446;-79
2022/03/07 16:09:05;;;;;;;2.70;2.30;;;;;;;;;;4757116;29;20488;-79
2022/03/07 16:12:53;;;;;;;3.90;2.30;;;;;;;;;;5183693;27;20999;-76
2022/03/07 16:15:19;;;;;;;3.17;2.37;;;;;;;;;;5179185;27;20754;-77